createdAt,value
2023-04-21T00:02:15.908Z,22.03
2023-04-21T00:04:42.466Z,24.53
2023-04-21T00:07:08.884Z,22.73
2023-04-21T00:09:35.237Z,22.57
2023-04-21T00:12:01.639Z,22.90
2023-04-21T00:14:28.082Z,22.03
2023-04-21T00:16:54.392Z,24.07
2023-04-21T00:19:21.004Z,23.73
2023-04-21T00:21:47.571Z,24.63
2023-04-21T00:24:13.893Z,25.07
2023-04-21T00:26:40.225Z,23.63
2023-04-21T00:29:07.049Z,24.50
2023-04-21T00:31:34.017Z,24.43
2023-04-21T00:34:00.428Z,22.90
2023-04-21T00:36:28.295Z,24.50
2023-04-21T00:38:54.938Z,23.80
2023-04-21T00:41:21.731Z,22.50
2023-04-21T00:44:01.280Z,24.00
2023-04-21T00:46:28.739Z,23.37
2023-04-21T00:48:55.132Z,22.63
2023-04-21T00:51:21.577Z,23.07
2023-04-21T00:53:48.153Z,22.43
2023-04-21T00:56:14.529Z,23.70
2023-04-21T00:58:42.542Z,23.80
2023-04-21T01:01:08.902Z,24.60
2023-04-21T01:03:35.828Z,24.23
2023-04-21T01:06:02.989Z,24.83
2023-04-21T01:08:29.488Z,23.80
2023-04-21T01:10:56.145Z,24.00
2023-04-21T01:13:22.504Z,24.33
2023-04-21T01:15:49.281Z,25.77
2023-04-21T01:18:16.981Z,25.73
2023-04-21T01:20:44.672Z,27.03
2023-04-21T01:23:11.025Z,27.40
2023-04-21T01:25:37.351Z,27.83
2023-04-21T01:28:04.057Z,26.10
2023-04-21T01:30:30.537Z,28.67
2023-04-21T01:33:00.142Z,28.47
2023-04-21T01:35:26.633Z,28.17
2023-04-21T01:37:53.111Z,27.90
2023-04-21T01:40:19.551Z,28.43
2023-04-21T01:42:45.913Z,28.10
2023-04-21T01:45:13.110Z,27.33
2023-04-21T01:47:39.595Z,27.53
2023-04-21T01:50:06.426Z,26.53
2023-04-21T01:52:32.740Z,26.60
2023-04-21T01:55:00.072Z,27.07
2023-04-21T01:57:26.657Z,26.20
2023-04-21T01:59:53.080Z,26.33
2023-04-21T02:02:19.577Z,26.50
2023-04-21T02:04:46.019Z,28.63
2023-04-21T02:07:12.421Z,26.07
2023-04-21T02:09:40.267Z,27.77
2023-04-21T02:12:07.055Z,28.83
2023-04-21T02:14:33.393Z,26.60
2023-04-21T02:16:59.812Z,28.20
2023-04-21T02:19:26.330Z,25.47
2023-04-21T02:21:54.389Z,29.00
2023-04-21T02:24:21.857Z,27.20
2023-04-21T02:26:48.184Z,28.17
2023-04-21T02:29:14.531Z,30.27
2023-04-21T02:31:57.301Z,29.87
2023-04-21T02:34:27.497Z,28.83
2023-04-21T02:36:54.408Z,28.50
2023-04-21T02:39:21.012Z,29.60
2023-04-21T02:41:47.467Z,29.57
2023-04-21T02:44:13.800Z,28.60
2023-04-21T02:46:43.668Z,30.70
2023-04-21T02:49:10.458Z,29.67
2023-04-21T02:51:37.310Z,29.43
2023-04-21T02:54:03.802Z,30.83
2023-04-21T02:56:31.549Z,29.67
2023-04-21T02:58:57.869Z,29.33
2023-04-21T03:01:24.349Z,31.67
2023-04-21T03:03:51.294Z,30.23
2023-04-21T03:06:17.694Z,31.53
2023-04-21T03:08:45.727Z,31.57
2023-04-21T03:11:12.036Z,30.73
2023-04-21T03:13:38.499Z,30.60
2023-04-21T03:16:05.357Z,31.27
2023-04-21T03:18:35.843Z,30.27
2023-04-21T03:21:02.223Z,30.17
2023-04-21T03:23:28.520Z,28.97
2023-04-21T03:25:54.905Z,31.40
2023-04-21T03:28:21.224Z,30.10
2023-04-21T03:30:47.577Z,29.93
2023-04-21T03:33:14.159Z,29.50
2023-04-21T03:35:40.685Z,28.83
2023-04-21T03:38:08.100Z,30.33
2023-04-21T03:40:35.287Z,29.53
2023-04-21T03:43:02.783Z,30.60
2023-04-21T03:45:29.128Z,30.63
2023-04-21T03:47:58.051Z,29.70
2023-04-21T03:50:24.476Z,29.90
2023-04-21T03:52:50.790Z,30.30
2023-04-21T03:55:17.214Z,30.50
2023-04-21T03:57:43.782Z,30.73
2023-04-21T04:00:10.721Z,30.77
2023-04-21T04:02:40.848Z,32.17
2023-04-21T04:05:08.172Z,30.67
2023-04-21T04:07:35.258Z,29.83
2023-04-21T04:10:01.616Z,30.23
2023-04-21T04:12:28.029Z,30.83
2023-04-21T04:14:54.361Z,30.40
2023-04-21T04:17:20.719Z,30.00
2023-04-21T04:19:47.037Z,29.97
2023-04-21T04:22:13.349Z,32.90
2023-04-21T04:24:39.759Z,32.27
2023-04-21T04:27:06.838Z,30.67
2023-04-21T04:29:33.168Z,30.77
2023-04-21T04:32:01.552Z,31.23
2023-04-21T04:34:27.901Z,32.40
2023-04-21T04:36:54.223Z,32.70
2023-04-21T04:39:22.073Z,31.37
2023-04-21T04:41:48.621Z,30.40
2023-04-21T04:44:17.514Z,30.70
2023-04-21T04:46:45.376Z,32.70
2023-04-21T04:49:11.736Z,32.83
2023-04-21T04:51:38.059Z,32.63
2023-04-21T04:54:04.430Z,34.27
2023-04-21T04:56:31.002Z,30.70
2023-04-21T04:58:57.337Z,31.47
2023-04-21T05:01:29.984Z,33.20
2023-04-21T05:03:57.132Z,32.57
2023-04-21T05:06:23.870Z,32.33
2023-04-21T05:08:50.203Z,30.27
2023-04-21T05:11:16.560Z,31.00
2023-04-21T05:13:42.885Z,33.10
2023-04-21T05:16:10.307Z,33.27
2023-04-21T05:18:37.750Z,32.23
2023-04-21T05:21:04.629Z,33.33
2023-04-21T05:23:31.297Z,33.67
2023-04-21T05:25:57.657Z,35.23
2023-04-21T05:28:24.089Z,33.20
2023-04-21T05:30:54.009Z,33.20
2023-04-21T05:33:21.094Z,34.47
2023-04-21T05:35:47.478Z,32.83
2023-04-21T05:38:13.844Z,34.40
2023-04-21T05:40:40.266Z,34.70
2023-04-21T05:43:06.590Z,34.80
2023-04-21T05:45:32.921Z,34.40
2023-04-21T05:47:59.291Z,34.60
2023-04-21T05:50:28.403Z,33.30
2023-04-21T05:52:54.810Z,33.47
2023-04-21T05:55:21.309Z,33.57
2023-04-21T05:57:47.674Z,33.13
2023-04-21T06:00:14.551Z,34.70
2023-04-21T06:02:41.033Z,32.77
2023-04-21T06:05:08.005Z,36.53
2023-04-21T06:07:37.286Z,34.57
2023-04-21T06:10:04.349Z,35.77
2023-04-21T06:12:30.745Z,34.50
2023-04-21T06:14:57.635Z,33.33
2023-04-21T06:17:24.291Z,33.93
2023-04-21T06:19:54.042Z,34.90
2023-04-21T06:22:20.895Z,34.07
2023-04-21T06:24:47.416Z,35.80
2023-04-21T06:27:13.965Z,34.23
2023-04-21T06:29:42.046Z,35.03
2023-04-21T06:32:09.397Z,32.90
2023-04-21T06:34:35.897Z,35.57
2023-04-21T06:37:02.324Z,35.53
2023-04-21T06:39:28.978Z,34.17
2023-04-21T06:41:55.463Z,35.50
2023-04-21T06:44:26.298Z,35.97
2023-04-21T06:46:52.873Z,34.63
2023-04-21T06:49:19.538Z,36.63
2023-04-21T06:51:46.322Z,33.77
2023-04-21T06:54:12.713Z,35.00
2023-04-21T06:56:39.115Z,34.93
2023-04-21T06:59:05.507Z,35.30
2023-04-21T07:01:32.012Z,34.87
2023-04-21T07:03:58.537Z,36.47
2023-04-21T07:06:25.065Z,34.93
2023-04-21T07:08:51.503Z,34.93
2023-04-21T07:11:17.964Z,34.37
2023-04-21T07:13:44.326Z,36.47
2023-04-21T07:16:10.888Z,36.20
2023-04-21T07:18:39.810Z,34.87
2023-04-21T07:21:06.235Z,35.47
2023-04-21T07:23:32.615Z,34.43
2023-04-21T07:25:59.317Z,35.33
2023-04-21T07:28:26.492Z,35.93
2023-04-21T07:30:52.955Z,34.27
2023-04-21T07:33:19.366Z,36.83
2023-04-21T07:35:45.861Z,36.80
2023-04-21T07:38:12.286Z,34.87
2023-04-21T07:40:38.704Z,36.83
2023-04-21T07:43:05.205Z,36.77
2023-04-21T07:45:31.615Z,35.47
2023-04-21T07:47:59.112Z,34.50
2023-04-21T07:50:25.687Z,33.47
2023-04-21T07:52:52.090Z,35.63
2023-04-21T07:55:18.490Z,34.67
2023-04-21T07:57:44.870Z,36.33
2023-04-21T08:00:11.861Z,34.20
2023-04-21T08:02:41.859Z,35.60
2023-04-21T08:05:08.820Z,35.27
2023-04-21T08:07:35.843Z,34.40
2023-04-21T08:10:02.721Z,34.67
2023-04-21T08:12:29.599Z,33.80
2023-04-21T08:14:55.981Z,33.90
2023-04-21T08:17:22.491Z,33.53
2023-04-21T08:19:49.018Z,33.43
2023-04-21T08:22:15.678Z,32.03
2023-04-21T08:24:42.127Z,33.93
2023-04-21T08:27:08.603Z,33.50
2023-04-21T08:29:34.997Z,31.53
2023-04-21T08:32:01.504Z,33.60
2023-04-21T08:34:28.186Z,34.40
2023-04-21T08:36:54.917Z,33.50
2023-04-21T08:39:21.520Z,33.60
2023-04-21T08:41:48.462Z,31.90
2023-04-21T08:44:15.757Z,32.87
2023-04-21T08:46:44.571Z,32.63
2023-04-21T08:49:12.888Z,34.93
2023-04-21T08:51:39.796Z,33.40
2023-04-21T08:54:06.268Z,32.63
2023-04-21T08:56:32.698Z,31.87
2023-04-21T08:58:59.076Z,32.23
2023-04-21T09:01:25.724Z,31.70
2023-04-21T09:03:52.275Z,32.80
2023-04-21T09:06:19.148Z,30.80
2023-04-21T09:08:55.726Z,31.97
2023-04-21T09:11:22.626Z,31.10
2023-04-21T09:13:49.019Z,30.97
2023-04-21T09:16:18.592Z,31.90
2023-04-21T09:18:45.145Z,31.17
2023-04-21T09:21:18.286Z,32.17
2023-04-21T09:23:50.608Z,31.43
2023-04-21T09:26:18.918Z,32.07
2023-04-21T09:28:47.383Z,32.10
2023-04-21T09:31:16.771Z,30.97
2023-04-21T09:36:25.139Z,30.10
2023-04-21T09:39:12.564Z,30.23
2023-04-21T09:41:40.873Z,30.77
2023-04-21T09:44:07.363Z,30.97
2023-04-21T09:46:36.059Z,32.30
2023-04-21T09:49:03.515Z,30.10
2023-04-21T09:54:25.945Z,31.20
2023-04-21T09:56:58.081Z,29.77
2023-04-21T09:59:37.037Z,29.43
2023-04-21T10:02:06.067Z,30.73
2023-04-21T10:04:35.088Z,31.43
2023-04-21T10:07:02.042Z,29.20
2023-04-21T10:09:37.031Z,29.90
2023-04-21T10:12:04.493Z,29.30
2023-04-21T10:14:31.448Z,27.83
2023-04-21T10:17:04.473Z,27.97
2023-04-21T10:19:36.108Z,29.63
2023-04-21T10:22:02.471Z,29.00
2023-04-21T10:24:30.250Z,30.23
2023-04-21T10:26:59.776Z,29.60
2023-04-21T10:29:40.209Z,27.93
2023-04-21T10:32:31.833Z,29.07
2023-04-21T10:34:58.278Z,29.53
2023-04-21T10:37:24.677Z,30.03
2023-04-21T10:39:55.051Z,29.83
2023-04-21T10:42:29.946Z,29.17
2023-04-21T10:44:56.358Z,28.77
2023-04-21T10:47:44.665Z,28.37
2023-04-21T10:50:28.142Z,28.33
2023-04-21T10:53:12.217Z,29.27
2023-04-21T10:55:39.516Z,30.23
2023-04-21T10:58:09.153Z,30.33
2023-04-21T11:00:38.655Z,27.97
2023-04-21T11:03:07.106Z,29.83
2023-04-21T11:05:39.331Z,29.63
2023-04-21T11:08:15.694Z,29.57
2023-04-21T11:11:00.468Z,27.77
2023-04-21T11:13:33.463Z,28.00
2023-04-21T11:16:07.070Z,30.57
2023-04-21T11:18:38.835Z,26.93
2023-04-21T11:21:24.553Z,27.13
2023-04-21T11:23:56.102Z,27.13
2023-04-21T11:26:38.176Z,27.37
2023-04-21T11:29:08.433Z,27.47
2023-04-21T11:31:36.754Z,28.40
2023-04-21T11:34:05.452Z,27.47
2023-04-21T11:36:36.043Z,28.50
2023-04-21T11:39:10.777Z,28.60
2023-04-21T11:41:43.251Z,27.03
2023-04-21T11:44:11.183Z,26.53
2023-04-21T11:46:38.149Z,27.50
2023-04-21T11:49:06.774Z,27.20
2023-04-21T11:51:41.431Z,24.63
2023-04-21T11:54:13.027Z,25.00
2023-04-21T11:56:42.306Z,22.70
2023-04-21T11:59:14.061Z,23.20
2023-04-21T12:01:47.673Z,24.53
2023-04-21T12:04:16.122Z,23.20
2023-04-21T12:06:43.387Z,23.50
2023-04-21T12:09:17.224Z,24.03
2023-04-21T12:11:49.662Z,24.57
2023-04-21T12:14:18.190Z,23.43
2023-04-21T12:16:44.629Z,24.67
2023-04-21T12:19:11.237Z,23.93
2023-04-21T12:21:39.399Z,26.10
2023-04-21T12:24:06.090Z,26.30
2023-04-21T12:26:32.454Z,26.17
2023-04-21T12:29:00.481Z,25.00
2023-04-21T12:31:26.956Z,25.37
2023-04-21T12:33:53.477Z,26.30
2023-04-21T12:36:20.179Z,25.57
2023-04-21T12:38:46.583Z,26.17
2023-04-21T12:41:12.970Z,26.00
2023-04-21T12:43:39.382Z,26.70
2023-04-21T12:46:05.966Z,24.50
2023-04-21T12:48:32.521Z,25.47
2023-04-21T12:50:58.888Z,25.87
2023-04-21T12:53:25.354Z,25.47
2023-04-21T12:56:03.395Z,24.47
2023-04-21T12:58:31.432Z,24.03
2023-04-21T13:00:57.902Z,24.63
2023-04-21T13:03:24.500Z,23.70
2023-04-21T13:05:51.748Z,23.30
2023-04-21T13:08:18.192Z,22.30
2023-04-21T13:10:45.974Z,22.80
2023-04-21T13:13:12.399Z,24.33
2023-04-21T13:15:39.057Z,23.53
2023-04-21T13:18:05.694Z,23.47
2023-04-21T13:20:32.110Z,23.13
2023-04-21T13:22:58.627Z,22.83
2023-04-21T13:25:25.050Z,22.43
2023-04-21T13:27:53.350Z,22.23
2023-04-21T13:30:20.183Z,22.80
2023-04-21T13:32:46.899Z,22.30
2023-04-21T13:35:13.346Z,23.83
2023-04-21T13:37:41.589Z,23.87
2023-04-21T13:40:09.961Z,22.83
2023-04-21T13:42:37.440Z,23.07
2023-04-21T13:45:04.887Z,22.67
2023-04-21T13:47:34.759Z,24.00
2023-04-21T13:50:01.163Z,24.10
2023-04-21T13:52:27.781Z,22.60
2023-04-21T13:54:54.369Z,24.83
2023-04-21T13:57:21.169Z,23.70
2023-04-21T13:59:47.954Z,24.60
2023-04-21T14:02:14.391Z,21.63
2023-04-21T14:04:41.129Z,23.10
2023-04-21T14:07:08.092Z,23.27
2023-04-21T14:09:35.084Z,21.17
2023-04-21T14:12:03.410Z,20.60
2023-04-21T14:14:38.565Z,18.63
2023-04-21T14:17:06.488Z,20.13
2023-04-21T14:19:33.196Z,18.47
2023-04-21T14:21:59.798Z,19.27
2023-04-21T14:24:28.636Z,19.53
2023-04-21T14:26:56.101Z,18.40
2023-04-21T14:29:22.869Z,18.30
2023-04-21T14:31:50.289Z,16.43
2023-04-21T14:34:16.857Z,17.77
2023-04-21T14:36:43.316Z,17.00
2023-04-21T14:39:10.178Z,17.53
2023-04-21T14:41:36.710Z,16.60
2023-04-21T14:44:03.782Z,15.30
2023-04-21T14:46:30.461Z,16.23
2023-04-21T14:48:57.508Z,17.00
2023-04-21T14:51:24.008Z,16.80
2023-04-21T14:53:51.114Z,16.77
2023-04-21T14:56:18.638Z,15.43
2023-04-21T14:58:45.124Z,16.00
2023-04-21T15:01:11.801Z,15.97
2023-04-21T15:03:38.395Z,15.17
2023-04-21T15:06:05.474Z,15.00
2023-04-21T15:08:32.193Z,16.27
2023-04-21T15:10:58.657Z,15.60
2023-04-21T15:13:25.848Z,14.93
2023-04-21T15:15:52.229Z,14.67
2023-04-21T15:18:18.719Z,14.63
2023-04-21T15:20:45.909Z,13.50
2023-04-21T15:23:12.624Z,14.17
2023-04-21T15:25:39.886Z,12.93
2023-04-21T15:28:07.352Z,12.77
2023-04-21T15:30:34.070Z,13.67
2023-04-21T15:33:01.216Z,13.07
2023-04-21T15:35:27.586Z,13.23
2023-04-21T15:37:54.074Z,12.73
2023-04-21T15:40:20.719Z,11.87
2023-04-21T15:42:47.155Z,11.87
2023-04-21T15:45:13.532Z,10.87
2023-04-21T15:47:39.929Z,12.00
2023-04-21T15:50:07.022Z,11.60
2023-04-21T15:52:36.942Z,10.60
2023-04-21T15:55:03.708Z,11.03
2023-04-21T15:57:30.157Z,10.27
2023-04-21T15:59:56.543Z,12.83
2023-04-21T16:02:23.439Z,12.33
2023-04-21T16:04:50.103Z,13.03
2023-04-21T16:07:16.642Z,12.80
2023-04-21T16:09:43.034Z,12.57
2023-04-21T16:12:10.351Z,12.40
2023-04-21T16:14:53.464Z,12.93
2023-04-21T16:17:26.468Z,12.13
2023-04-21T16:19:53.622Z,12.03
2023-04-21T16:22:20.322Z,11.53
2023-04-21T16:24:46.821Z,11.90
2023-04-21T16:27:13.296Z,12.90
2023-04-21T16:29:39.723Z,12.17
2023-04-21T16:32:06.782Z,13.70
2023-04-21T16:34:33.372Z,13.60
2023-04-21T16:37:00.146Z,12.10
2023-04-21T16:39:27.614Z,12.17
2023-04-21T16:41:53.937Z,11.67
2023-04-21T16:44:20.460Z,12.73
2023-04-21T16:46:46.823Z,12.13
2023-04-21T16:49:13.490Z,12.73
2023-04-21T16:51:44.255Z,11.00
2023-04-21T16:54:13.906Z,11.50
2023-04-21T16:56:40.226Z,11.37
2023-04-21T16:59:09.321Z,13.43
2023-04-21T17:01:35.853Z,12.77
2023-04-21T17:04:02.471Z,13.07
2023-04-21T17:06:29.022Z,12.33
2023-04-21T17:08:59.845Z,12.47
2023-04-21T17:11:31.160Z,11.43
2023-04-21T17:13:57.511Z,11.00
2023-04-21T17:16:24.139Z,11.20
2023-04-21T17:18:50.568Z,11.63
2023-04-21T17:21:16.902Z,13.03
2023-04-21T17:23:43.341Z,12.83
2023-04-21T17:26:12.245Z,11.70
2023-04-21T17:28:39.438Z,10.93
2023-04-21T17:31:15.284Z,11.77
2023-04-21T17:33:43.451Z,10.70
2023-04-21T17:36:09.896Z,11.13
2023-04-21T17:38:36.276Z,11.53
2023-04-21T17:41:04.390Z,10.97
2023-04-21T17:43:30.778Z,12.33
2023-04-21T17:45:57.205Z,13.33
2023-04-21T17:48:23.692Z,13.03
2023-04-21T17:50:50.003Z,13.10
2023-04-21T17:53:17.251Z,12.73
2023-04-21T17:55:43.672Z,14.50
2023-04-21T17:58:12.260Z,14.33
2023-04-21T18:00:39.076Z,13.83
2023-04-21T18:03:05.562Z,13.40
2023-04-21T18:05:32.195Z,12.93
2023-04-21T18:07:58.856Z,11.90
2023-04-21T18:10:28.259Z,14.97
2023-04-21T18:12:56.004Z,14.63
2023-04-21T18:15:22.327Z,14.33
2023-04-21T18:17:48.661Z,15.13
2023-04-21T18:20:15.373Z,13.77
2023-04-21T18:22:43.590Z,13.47
2023-04-21T18:25:11.685Z,13.93
2023-04-21T18:27:39.212Z,14.20
2023-04-21T18:30:08.492Z,14.73
2023-04-21T18:32:36.043Z,13.43
2023-04-21T18:35:03.182Z,13.13
2023-04-21T18:37:29.588Z,14.67
2023-04-21T18:39:56.306Z,16.03
2023-04-21T18:42:22.750Z,16.47
2023-04-21T18:44:49.689Z,15.53
2023-04-21T18:47:16.159Z,15.33
2023-04-21T18:49:42.581Z,14.33
2023-04-21T18:52:09.263Z,15.30
2023-04-21T18:54:35.866Z,16.40
2023-04-21T18:57:03.800Z,15.60
2023-04-21T18:59:30.290Z,17.00
2023-04-21T19:01:56.923Z,16.97
2023-04-21T19:04:23.765Z,16.70
2023-04-21T19:06:50.494Z,18.83
2023-04-21T19:09:17.108Z,19.17
2023-04-21T19:11:43.622Z,19.07
2023-04-21T19:14:10.110Z,17.17
2023-04-21T19:16:36.852Z,17.57
2023-04-21T19:19:04.779Z,18.70
2023-04-21T19:21:31.218Z,17.37
2023-04-21T19:23:58.177Z,17.37
2023-04-21T19:26:24.996Z,17.70
2023-04-21T19:28:51.483Z,18.33
2023-04-21T19:31:21.343Z,18.47
2023-04-21T19:33:49.398Z,17.47
2023-04-21T19:36:15.810Z,18.80
2023-04-21T19:38:42.246Z,19.03
2023-04-21T19:41:08.790Z,18.60
2023-04-21T19:43:35.428Z,20.00
2023-04-21T19:46:01.880Z,18.27
2023-04-21T19:48:28.374Z,21.00
2023-04-21T19:50:54.800Z,18.73
2023-04-21T19:53:21.214Z,19.80
2023-04-21T19:55:48.685Z,20.63
2023-04-21T19:58:28.189Z,19.90
2023-04-21T20:01:03.655Z,20.07
2023-04-21T20:03:31.294Z,20.03
2023-04-21T20:05:57.894Z,20.70
2023-04-21T20:08:24.312Z,23.90
2023-04-21T20:10:50.760Z,28.90
2023-04-21T20:13:17.143Z,9.50
2023-04-21T20:15:43.846Z,8.40
2023-04-21T20:18:10.864Z,4.13
2023-04-21T20:20:37.312Z,4.13
2023-04-21T20:23:03.813Z,3.93
2023-04-21T20:25:30.229Z,3.97
2023-04-21T20:27:56.934Z,3.20
2023-04-21T20:30:23.265Z,5.03
2023-04-21T20:32:50.294Z,4.40
2023-04-21T20:35:17.123Z,3.63
2023-04-21T20:37:44.323Z,4.30
2023-04-21T20:40:11.761Z,3.37
2023-04-21T20:42:38.890Z,3.40
2023-04-21T20:45:06.502Z,3.37
2023-04-21T20:47:33.854Z,3.97
2023-04-21T20:50:00.482Z,3.63
2023-04-21T20:52:26.992Z,3.73
2023-04-21T20:54:53.368Z,3.67
2023-04-21T20:57:19.847Z,4.47
2023-04-21T20:59:46.205Z,3.73
2023-04-21T21:02:12.617Z,4.30
2023-04-21T21:04:39.134Z,3.17
2023-04-21T21:07:06.142Z,3.70
2023-04-21T21:09:32.549Z,3.30
2023-04-21T21:11:59.135Z,3.83
2023-04-21T21:14:25.542Z,4.37
2023-04-21T21:16:54.479Z,4.40
2023-04-21T21:19:21.126Z,4.40
2023-04-21T21:21:47.503Z,4.87
2023-04-21T21:24:13.887Z,4.20
2023-04-21T21:26:42.484Z,4.20
2023-04-21T21:29:09.311Z,4.60
2023-04-21T21:31:35.636Z,4.53
2023-04-21T21:34:03.772Z,4.37
2023-04-21T21:36:31.624Z,4.10
2023-04-21T21:38:57.938Z,4.87
2023-04-21T21:41:24.347Z,5.10
2023-04-21T21:43:50.757Z,4.57
2023-04-21T21:46:18.502Z,4.33
2023-04-21T21:48:45.089Z,4.73
2023-04-21T21:51:11.399Z,4.97
2023-04-21T21:53:37.725Z,4.67
2023-04-21T21:56:04.286Z,5.70
2023-04-21T21:58:30.830Z,5.20
2023-04-21T22:00:57.202Z,5.40
2023-04-21T22:03:23.623Z,5.33
2023-04-21T22:05:50.074Z,5.70
2023-04-21T22:08:16.499Z,5.43
2023-04-21T22:10:43.302Z,6.37
2023-04-21T22:13:09.826Z,6.37
2023-04-21T22:15:37.319Z,6.43
2023-04-21T22:18:04.070Z,7.23
2023-04-21T22:20:30.853Z,6.87
2023-04-21T22:22:57.239Z,6.20
2023-04-21T22:25:29.764Z,6.63
2023-04-21T22:27:57.045Z,6.07
2023-04-21T22:30:23.614Z,6.80
2023-04-21T22:32:50.307Z,7.03
2023-04-21T22:35:16.770Z,8.20
2023-04-21T22:37:43.154Z,8.77
2023-04-21T22:40:10.320Z,8.90
2023-04-21T22:42:37.012Z,8.90
2023-04-21T22:45:05.178Z,8.57
2023-04-21T22:47:33.279Z,8.17
2023-04-21T22:49:59.658Z,8.47
2023-04-21T22:52:26.807Z,8.50
2023-04-21T22:54:53.571Z,8.70
2023-04-21T22:57:20.886Z,8.27
2023-04-21T22:59:47.370Z,8.47
2023-04-21T23:02:13.907Z,8.23
2023-04-21T23:04:40.314Z,8.07
2023-04-21T23:07:06.678Z,9.53
2023-04-21T23:09:32.978Z,11.40
2023-04-21T23:11:59.525Z,9.20
2023-04-21T23:14:26.057Z,8.77
2023-04-21T23:16:52.462Z,8.80
2023-04-21T23:19:19.330Z,8.97
2023-04-21T23:21:46.377Z,9.00
2023-04-21T23:24:12.944Z,9.03
2023-04-21T23:26:39.276Z,9.50
2023-04-21T23:29:05.886Z,10.13
2023-04-21T23:31:32.337Z,10.93
2023-04-21T23:33:59.986Z,9.33
2023-04-21T23:36:29.433Z,9.87
2023-04-21T23:38:55.985Z,12.00
2023-04-21T23:41:22.375Z,12.23
2023-04-21T23:43:48.760Z,10.67
2023-04-21T23:46:15.404Z,10.57
2023-04-21T23:48:41.847Z,11.23
2023-04-21T23:51:08.294Z,11.30
2023-04-21T23:53:34.829Z,9.57
2023-04-21T23:56:01.189Z,10.00
2023-04-21T23:58:27.991Z,7.53
